Time;durP1;ratioP1;P1;durP2;ratioP2;P2;SDS_P1;SDS_P2;PMS_P1;PMS_P2;Temp;Humidity;BMP_temperature;BMP_pressure;BME280_temperature;BME280_humidity;BME280_pressure;Samples;Min_cycle;Max_cycle;Signal;HPM_P1;HPM_P2
2023/01/31 00:00:01;;;;;;;;;;;;;;;9.96;66.81;101691.34;7355570;19;19926;-56
2023/01/31 00:02:27;;;;;;;;;;;;;;;9.97;67.21;101695.69;7358003;19;19943;-56
2023/01/31 00:04:52;;;;;;;;;;;;;;;9.97;67.13;101693.06;7354711;19;19922;-56
2023/01/31 00:07:17;;;;;;;;;;;;;;;9.97;67.05;101695.69;7351310;19;19926;-56
2023/01/31 00:09:42;;;;;;;;;;;;;;;9.98;67.05;101683.50;7353441;19;19910;-55
2023/01/31 00:12:07;;;;;;;;;;;;;;;9.97;67.38;101687.84;7355470;19;19936;-54
2023/01/31 00:14:33;;;;;;;;;;;;;;;9.98;67.20;101679.13;7353652;19;19934;-54
2023/01/31 00:16:58;;;;;;;;;;;;;;;10.00;67.47;101677.41;7355736;19;19926;-56
2023/01/31 00:19:23;;;;;;;;;;;;;;;10.01;67.14;101681.75;7365563;19;19915;-56
2023/01/31 00:21:48;;;;;;;;;;;;;;;10.03;67.37;101676.50;7362356;19;19927;-56
2023/01/31 00:24:14;;;;;;;;;;;;;;;10.03;67.37;101677.38;7362042;19;20002;-55
2023/01/31 00:26:39;;;;;;;;;;;;;;;10.05;67.50;101675.66;7361295;19;21373;-55
2023/01/31 00:29:05;;;;;;;;;;;;;;;10.06;67.75;101666.94;7362890;19;19927;-56
2023/01/31 00:31:31;;;;;;;;;;;;;;;10.08;67.57;101667.78;7359538;19;19921;-56
2023/01/31 00:33:56;;;;;;;;;;;;;;;10.10;67.90;101670.41;7363009;19;20248;-55
2023/01/31 00:36:23;;;;;;;;;;;;;;;10.11;67.96;101667.78;7362369;19;19929;-55
2023/01/31 00:38:50;;;;;;;;;;;;;;;10.15;67.79;101681.69;7363302;19;19958;-56
2023/01/31 00:41:15;;;;;;;;;;;;;;;10.17;67.89;101668.63;7363473;19;19930;-55
2023/01/31 00:43:40;;;;;;;;;;;;;;;10.20;67.80;101673.84;7364056;19;19926;-56
2023/01/31 00:46:06;;;;;;;;;;;;;;;10.22;68.26;101664.25;7364986;19;19926;-57
2023/01/31 00:48:31;;;;;;;;;;;;;;;10.13;67.61;101642.53;7360553;19;19986;-56
2023/01/31 00:50:56;;;;;;;;;;;;;;;10.26;67.92;101652.94;7364971;19;22079;-57
2023/01/31 00:53:24;;;;;;;;;;;;;;;10.27;68.21;101650.31;7356854;19;20594;-56
2023/01/31 00:55:50;;;;;;;;;;;;;;;10.30;68.43;101652.91;7361899;19;19942;-54
2023/01/31 00:58:16;;;;;;;;;;;;;;;10.32;68.14;101653.78;7361829;19;20623;-56
2023/01/31 01:00:41;;;;;;;;;;;;;;;10.34;68.27;101646.81;7364628;19;19930;-57
2023/01/31 01:03:06;;;;;;;;;;;;;;;10.36;68.29;101641.56;7363410;19;20284;-56
2023/01/31 01:05:31;;;;;;;;;;;;;;;10.39;68.54;101644.13;7364219;19;19942;-56
2023/01/31 01:07:57;;;;;;;;;;;;;;;10.41;68.12;101634.56;7359719;19;19930;-56
2023/01/31 01:10:22;;;;;;;;;;;;;;;10.43;68.59;101627.56;7364476;19;19930;-56
2023/01/31 01:12:47;;;;;;;;;;;;;;;10.46;68.18;101619.75;7360228;19;20585;-56
2023/01/31 01:15:13;;;;;;;;;;;;;;;10.47;68.71;101625.81;7361310;19;19950;-55
2023/01/31 01:17:38;;;;;;;;;;;;;;;10.49;68.18;101624.06;7361141;19;20001;-56
2023/01/31 01:20:03;;;;;;;;;;;;;;;10.50;68.21;101615.38;7359300;19;19923;-57
2023/01/31 01:22:30;;;;;;;;;;;;;;;10.50;68.28;101623.19;7364909;19;19943;-56
2023/01/31 01:24:55;;;;;;;;;;;;;;;10.49;68.25;101621.44;7362100;19;19915;-56
2023/01/31 01:27:20;;;;;;;;;;;;;;;10.50;68.33;101617.97;7361123;19;20422;-56
2023/01/31 01:29:46;;;;;;;;;;;;;;;10.49;68.95;101609.28;7360357;19;19927;-56
2023/01/31 01:32:11;;;;;;;;;;;;;;;10.48;68.85;101602.28;7363882;19;19919;-55
2023/01/31 01:34:36;;;;;;;;;;;;;;;10.47;68.88;101611.03;7358669;19;19915;-55
2023/01/31 01:37:08;;;;;;;;;;;;;;;10.47;68.83;101599.72;7361739;19;19934;-56
2023/01/31 01:39:34;;;;;;;;;;;;;;;10.45;69.11;101596.25;7358540;19;19930;-55
2023/01/31 01:41:59;;;;;;;;;;;;;;;10.43;68.95;101598.84;7364408;19;20626;-57
2023/01/31 01:44:43;;;;;;;;;;;;;;;10.43;68.94;101592.78;7361692;19;19943;-56
2023/01/31 01:47:31;;;;;;;;;;;;;;;10.41;69.10;101594.53;7362407;19;19996;-56
2023/01/31 01:50:05;;;;;;;;;;;;;;;10.39;69.35;101591.91;7361273;19;19922;-56
2023/01/31 01:52:33;;;;;;;;;;;;;;;10.38;69.75;101587.59;7363428;19;19986;-55
2023/01/31 01:55:02;;;;;;;;;;;;;;;10.37;69.91;101598.91;7356389;19;19918;-56
2023/01/31 01:57:31;;;;;;;;;;;;;;;10.36;70.10;101571.06;7363361;19;19974;-53
2023/01/31 02:00:17;;;;;;;;;;;;;;;10.36;70.34;101561.50;7360317;19;19911;-56
2023/01/31 02:02:44;;;;;;;;;;;;;;;10.34;70.43;101568.50;7359368;19;19931;-56
2023/01/31 02:05:11;;;;;;;;;;;;;;;10.34;70.42;101578.03;7361286;19;19923;-56
2023/01/31 02:07:37;;;;;;;;;;;;;;;10.35;70.33;101580.66;7361660;19;20841;-53
2023/01/31 02:10:11;;;;;;;;;;;;;;;10.34;71.19;101578.94;7358490;19;20003;-56
2023/01/31 02:12:37;;;;;;;;;;;;;;;10.35;70.92;101564.13;7361488;19;19930;-56
2023/01/31 02:15:02;;;;;;;;;;;;;;;10.36;71.08;101561.50;7362447;19;19938;-56
2023/01/31 02:17:28;;;;;;;;;;;;;;;10.36;71.50;101582.38;7365205;19;19923;-56
2023/01/31 02:20:00;;;;;;;;;;;;;;;10.36;71.20;101561.50;7365732;19;19977;-56
2023/01/31 02:22:28;;;;;;;;;;;;;;;10.36;71.23;101571.06;7361884;19;19922;-56
2023/01/31 02:25:12;;;;;;;;;;;;;;;10.37;71.58;101572.81;7366115;19;19959;-56
2023/01/31 02:28:00;;;;;;;;;;;;;;;10.36;71.82;101566.72;7365873;19;19950;-54
2023/01/31 02:30:25;;;;;;;;;;;;;;;10.37;71.84;101564.97;7358546;19;19926;-56
2023/01/31 02:33:01;;;;;;;;;;;;;;;10.36;72.11;101551.06;7366095;19;19995;-57
2023/01/31 02:35:27;;;;;;;;;;;;;;;10.36;71.98;101555.41;7363405;19;19923;-55
2023/01/31 02:37:58;;;;;;;;;;;;;;;10.32;71.93;101561.53;7365865;19;19990;-56
2023/01/31 02:40:41;;;;;;;;;;;;;;;10.35;72.26;101559.78;7360237;19;20006;-55
2023/01/31 02:43:13;;;;;;;;;;;;;;;10.35;72.46;101564.13;7363161;19;19910;-55
2023/01/31 02:45:46;;;;;;;;;;;;;;;10.34;72.49;101558.03;7364271;19;19929;-55
2023/01/31 02:48:14;;;;;;;;;;;;;;;10.34;72.46;101568.50;7363917;19;19926;-55
2023/01/31 02:50:39;;;;;;;;;;;;;;;10.33;72.33;101565.88;7362790;19;19948;-56
2023/01/31 02:53:11;;;;;;;;;;;;;;;10.33;72.71;101555.41;7364511;19;19923;-56
2023/01/31 02:58:30;;;;;;;;;;;;;;;10.31;73.11;101541.53;7251715;19;2004364;-55
2023/01/31 03:00:57;;;;;;;;;;;;;;;10.31;72.93;101551.97;7362895;19;19982;-56
2023/01/31 03:03:27;;;;;;;;;;;;;;;10.29;73.29;101544.16;7359697;19;19914;-57
2023/01/31 03:06:11;;;;;;;;;;;;;;;10.31;73.54;101547.63;7363081;19;19922;-56
2023/01/31 03:08:40;;;;;;;;;;;;;;;10.32;73.79;101543.25;7358152;19;19925;-56
2023/01/31 03:11:07;;;;;;;;;;;;;;;10.32;73.59;101538.91;7363269;19;19978;-56
2023/01/31 03:13:32;;;;;;;;;;;;;;;10.32;73.76;101548.47;7361577;19;20331;-55
2023/01/31 03:18:53;;;;;;;;;;;;;;;10.31;73.93;101559.81;7362780;19;19930;-56
2023/01/31 03:21:23;;;;;;;;;;;;;;;10.31;74.56;101541.53;7357361;19;19970;-56
2023/01/31 03:23:51;;;;;;;;;;;;;;;10.32;74.34;101553.69;7357316;19;19914;-56
2023/01/31 03:26:19;;;;;;;;;;;;;;;10.33;74.45;101571.09;7361591;19;19932;-56
2023/01/31 03:28:45;;;;;;;;;;;;;;;10.33;74.83;101550.19;7360939;19;19931;-56
2023/01/31 03:31:13;;;;;;;;;;;;;;;10.34;74.58;101552.81;7357525;19;19915;-56
2023/01/31 03:33:42;;;;;;;;;;;;;;;10.35;74.75;101556.28;7357295;19;19922;-56
2023/01/31 03:36:16;;;;;;;;;;;;;;;10.36;74.70;101550.19;7360532;19;19915;-56
2023/01/31 03:39:08;;;;;;;;;;;;;;;10.37;74.85;101567.56;7362667;19;19936;-54
2023/01/31 03:41:42;;;;;;;;;;;;;;;10.38;74.92;101543.19;7252272;19;2004258;-55
2023/01/31 03:44:13;;;;;;;;;;;;;;;10.37;74.76;101552.78;7362340;19;19919;-55
2023/01/31 03:46:59;;;;;;;;;;;;;;;10.38;74.88;101538.84;7361087;19;19926;-55
2023/01/31 03:49:25;;;;;;;;;;;;;;;10.40;74.77;101546.69;7361075;19;20026;-55
2023/01/31 03:51:53;;;;;;;;;;;;;;;10.41;75.01;101547.53;7353222;19;19945;-56
2023/01/31 03:54:23;;;;;;;;;;;;;;;10.42;75.25;101555.34;7355726;19;19923;-56
2023/01/31 03:56:57;;;;;;;;;;;;;;;10.43;75.04;101557.09;7361320;19;20251;-56
2023/01/31 03:59:28;;;;;;;;;;;;;;;10.44;75.35;101558.84;7355613;19;19910;-56
2023/01/31 04:01:54;;;;;;;;;;;;;;;10.48;75.27;101577.94;7355894;19;19922;-53
2023/01/31 04:04:38;;;;;;;;;;;;;;;10.51;75.40;101580.53;7337955;19;19942;-55
2023/01/31 04:07:05;;;;;;;;;;;;;;;10.53;75.44;101590.06;7359688;19;19930;-53
2023/01/31 04:09:30;;;;;;;;;;;;;;;10.56;76.06;101584.84;7359500;19;20296;-56
2023/01/31 04:11:58;;;;;;;;;;;;;;;10.58;75.75;101592.66;7363493;19;19925;-56
2023/01/31 04:14:23;;;;;;;;;;;;;;;10.57;75.12;101586.56;7359383;19;20006;-56
2023/01/31 04:16:48;;;;;;;;;;;;;;;10.58;74.99;101593.50;7359898;19;19982;-53
2023/01/31 04:19:13;;;;;;;;;;;;;;;10.57;74.88;101576.13;7359595;19;20350;-56
2023/01/31 04:21:39;;;;;;;;;;;;;;;10.57;74.94;101577.88;7342017;19;19938;-56
2023/01/31 04:24:04;;;;;;;;;;;;;;;10.54;74.74;101576.16;7357675;19;19927;-56
2023/01/31 04:26:29;;;;;;;;;;;;;;;10.51;74.44;101559.63;7360671;19;19926;-54
2023/01/31 04:28:55;;;;;;;;;;;;;;;10.47;74.54;101573.59;7358750;19;20011;-56
2023/01/31 04:31:20;;;;;;;;;;;;;;;10.44;73.95;101584.94;7361704;19;20332;-56
2023/01/31 04:33:45;;;;;;;;;;;;;;;10.40;74.12;101609.34;7356114;19;19911;-55
2023/01/31 04:36:10;;;;;;;;;;;;;;;10.35;73.78;101603.28;7359458;19;20006;-56
2023/01/31 04:38:36;;;;;;;;;;;;;;;10.29;73.40;101608.53;7362321;19;20515;-55
2023/01/31 04:41:01;;;;;;;;;;;;;;;10.24;73.35;101612.91;7359137;19;19919;-56
2023/01/31 04:43:26;;;;;;;;;;;;;;;10.19;73.34;101612.03;7361517;19;19923;-55
2023/01/31 04:45:52;;;;;;;;;;;;;;;10.11;73.07;101620.81;7359688;19;19919;-55
2023/01/31 04:48:17;;;;;;;;;;;;;;;10.05;73.00;101623.47;7355993;19;19919;-56
2023/01/31 04:50:42;;;;;;;;;;;;;;;9.99;72.82;101627.84;7361101;19;19921;-56
2023/01/31 04:53:07;;;;;;;;;;;;;;;9.93;72.91;101638.28;7361252;19;19949;-55
2023/01/31 04:55:33;;;;;;;;;;;;;;;9.88;72.57;101651.34;7354853;19;20923;-55
2023/01/31 04:57:58;;;;;;;;;;;;;;;9.79;72.74;101635.78;7360797;19;19915;-55
2023/01/31 05:00:23;;;;;;;;;;;;;;;9.73;72.46;101638.38;7358689;19;19926;-53
2023/01/31 05:02:49;;;;;;;;;;;;;;;9.67;72.35;101639.28;7361353;19;20958;-56
2023/01/31 05:05:14;;;;;;;;;;;;;;;9.61;72.42;101644.53;7367395;19;19963;-54
2023/01/31 05:07:39;;;;;;;;;;;;;;;9.54;72.22;101635.88;7362328;19;20014;-55
2023/01/31 05:10:05;;;;;;;;;;;;;;;9.49;72.06;101648.06;7364928;19;19914;-55
2023/01/31 05:12:31;;;;;;;;;;;;;;;9.44;72.03;101649.81;7362482;19;20251;-53
2023/01/31 05:14:56;;;;;;;;;;;;;;;9.38;71.58;101642.00;7369555;19;19918;-55
2023/01/31 05:17:28;;;;;;;;;;;;;;;9.32;71.53;101645.47;7364753;19;19919;-56
2023/01/31 05:19:53;;;;;;;;;;;;;;;9.30;71.64;101633.31;7366170;19;19942;-54
2023/01/31 05:22:21;;;;;;;;;;;;;;;9.26;71.09;101634.19;7362459;19;20462;-53
2023/01/31 05:24:46;;;;;;;;;;;;;;;9.21;70.99;101635.94;7365111;19;20024;-53
2023/01/31 05:27:12;;;;;;;;;;;;;;;9.18;71.03;101633.38;7360075;19;19919;-55
2023/01/31 05:29:37;;;;;;;;;;;;;;;9.12;71.01;101633.34;7365627;19;20631;-56
2023/01/31 05:32:02;;;;;;;;;;;;;;;9.07;70.83;101634.25;7360800;19;20015;-56
2023/01/31 05:34:31;;;;;;;;;;;;;;;9.02;70.86;101629.91;7366710;19;19918;-56
2023/01/31 05:36:56;;;;;;;;;;;;;;;9.00;70.66;101635.13;7362844;19;19923;-55
2023/01/31 05:39:22;;;;;;;;;;;;;;;8.95;70.96;101618.63;7366531;19;19953;-56
2023/01/31 05:41:47;;;;;;;;;;;;;;;8.92;70.47;101623.84;7363656;19;20800;-54
2023/01/31 05:44:13;;;;;;;;;;;;;;;8.86;70.69;101629.03;7366373;19;19928;-56
2023/01/31 05:46:39;;;;;;;;;;;;;;;8.82;70.54;101628.19;7363567;19;19942;-56
2023/01/31 05:49:04;;;;;;;;;;;;;;;8.79;70.68;101624.72;7366630;19;19914;-54
2023/01/31 05:51:30;;;;;;;;;;;;;;;8.75;70.68;101615.16;7363194;19;20369;-56
2023/01/31 05:53:55;;;;;;;;;;;;;;;8.70;70.69;101628.19;7366906;19;20277;-55
2023/01/31 05:56:21;;;;;;;;;;;;;;;8.65;70.10;101624.72;7364907;19;19929;-55
2023/01/31 05:58:50;;;;;;;;;;;;;;;8.63;70.43;101628.19;7365692;19;19925;-56
2023/01/31 06:01:25;;;;;;;;;;;;;;;8.58;70.33;101633.41;7360486;19;19942;-55
2023/01/31 06:03:50;;;;;;;;;;;;;;;8.54;69.98;101629.94;7363457;19;19925;-54
2023/01/31 06:06:16;;;;;;;;;;;;;;;8.51;70.35;101622.09;7363228;19;20334;-55
2023/01/31 06:08:41;;;;;;;;;;;;;;;8.47;70.53;101623.00;7364326;19;19922;-56
2023/01/31 06:11:07;;;;;;;;;;;;;;;8.46;70.20;101636.84;7366175;19;19946;-55
2023/01/31 06:13:32;;;;;;;;;;;;;;;8.44;70.21;101641.19;7356906;19;19918;-57
2023/01/31 06:15:58;;;;;;;;;;;;;;;8.43;70.22;101628.19;7361555;19;20504;-56
2023/01/31 06:18:24;;;;;;;;;;;;;;;8.42;70.40;101632.53;7363063;19;19932;-56
2023/01/31 06:20:49;;;;;;;;;;;;;;;8.40;70.17;101639.44;7365404;19;19939;-56
2023/01/31 06:23:14;;;;;;;;;;;;;;;8.38;70.08;101630.78;7360619;19;19978;-56
2023/01/31 06:25:40;;;;;;;;;;;;;;;8.38;70.40;101636.00;7364474;19;19926;-54
2023/01/31 06:28:05;;;;;;;;;;;;;;;8.36;70.58;101629.91;7362000;19;20642;-54
2023/01/31 06:30:30;;;;;;;;;;;;;;;8.36;70.27;101637.69;7363449;19;19932;-53
2023/01/31 06:32:58;;;;;;;;;;;;;;;8.36;70.72;101648.13;7364652;19;19922;-56
2023/01/31 06:35:23;;;;;;;;;;;;;;;8.38;70.95;101636.00;7364635;19;19918;-56
2023/01/31 06:37:48;;;;;;;;;;;;;;;8.39;71.07;101637.72;7363957;19;20272;-55
2023/01/31 06:40:14;;;;;;;;;;;;;;;8.42;70.69;101635.13;7366026;19;20002;-56
2023/01/31 06:42:39;;;;;;;;;;;;;;;8.42;70.84;101642.94;7361472;19;19922;-54
2023/01/31 06:45:04;;;;;;;;;;;;;;;8.45;71.31;101635.13;7362221;19;20272;-55
2023/01/31 06:47:30;;;;;;;;;;;;;;;8.47;70.86;101633.41;7361018;19;20398;-54
2023/01/31 06:49:55;;;;;;;;;;;;;;;8.51;70.74;101642.06;7365556;19;19914;-56
2023/01/31 06:52:20;;;;;;;;;;;;;;;8.51;71.16;101636.84;7363208;19;20010;-55
2023/01/31 06:54:45;;;;;;;;;;;;;;;8.51;71.16;101637.72;7364236;19;19918;-56
2023/01/31 06:57:11;;;;;;;;;;;;;;;8.52;71.21;101638.63;7361027;19;19922;-56
2023/01/31 06:59:36;;;;;;;;;;;;;;;8.49;71.07;101655.09;7353970;19;19933;-57
2023/01/31 07:02:01;;;;;;;;;;;;;;;8.52;71.00;101651.63;7359416;19;19923;-55
2023/01/31 07:04:26;;;;;;;;;;;;;;;8.50;70.77;101662.03;7362088;19;19926;-56
2023/01/31 07:06:52;;;;;;;;;;;;;;;8.49;71.36;101655.09;7358460;19;19915;-55
2023/01/31 07:09:17;;;;;;;;;;;;;;;8.51;70.78;101673.31;7362123;19;20697;-55
2023/01/31 07:11:42;;;;;;;;;;;;;;;8.51;71.35;101668.09;7364410;19;20580;-55
2023/01/31 07:14:07;;;;;;;;;;;;;;;8.49;70.91;101665.50;7355727;19;20002;-53
2023/01/31 07:16:33;;;;;;;;;;;;;;;8.49;71.16;101670.69;7358723;19;19948;-57
2023/01/31 07:18:58;;;;;;;;;;;;;;;8.49;71.14;101677.66;7361302;19;19939;-54
2023/01/31 07:21:23;;;;;;;;;;;;;;;8.48;71.13;101679.38;7357094;19;19960;-56
2023/01/31 07:23:49;;;;;;;;;;;;;;;8.49;70.98;101683.72;7355096;19;19922;-56
2023/01/31 07:26:15;;;;;;;;;;;;;;;8.48;70.90;101682.00;7358790;19;19923;-55
2023/01/31 07:28:40;;;;;;;;;;;;;;;8.47;71.05;101688.06;7360432;19;20491;-56
2023/01/31 07:31:09;;;;;;;;;;;;;;;8.48;70.82;101679.38;7357278;19;19919;-54
2023/01/31 07:33:34;;;;;;;;;;;;;;;8.47;70.85;101690.66;7358351;19;20803;-55
2023/01/31 07:36:01;;;;;;;;;;;;;;;8.48;70.79;101689.78;7360673;19;20663;-54
2023/01/31 07:38:26;;;;;;;;;;;;;;;8.50;71.00;101708.88;7360857;19;19915;-56
2023/01/31 07:40:51;;;;;;;;;;;;;;;8.49;70.70;101696.72;7359380;19;20030;-56
2023/01/31 07:43:17;;;;;;;;;;;;;;;8.51;70.82;101700.19;7356201;19;19919;-56
2023/01/31 07:45:42;;;;;;;;;;;;;;;8.51;70.74;101694.13;7358684;19;19911;-56
2023/01/31 07:48:07;;;;;;;;;;;;;;;8.51;70.44;101705.41;7353721;19;20549;-56
2023/01/31 07:50:32;;;;;;;;;;;;;;;8.49;70.27;101709.75;7349650;19;19942;-56
2023/01/31 07:52:58;;;;;;;;;;;;;;;8.51;70.61;101712.34;7352968;19;19919;-56
2023/01/31 07:55:23;;;;;;;;;;;;;;;8.49;70.14;101695.88;7355825;19;20016;-56
2023/01/31 07:57:49;;;;;;;;;;;;;;;8.48;70.58;101699.34;7358790;19;19930;-56
2023/01/31 08:05:49;;;;;;;;;;;;;;;8.41;70.25;101713.19;7356342;19;19919;-56
2023/01/31 08:08:14;;;;;;;;;;;;;;;8.39;70.43;101718.41;7362198;19;19934;-55
2023/01/31 08:10:39;;;;;;;;;;;;;;;8.37;70.36;101717.53;7359984;19;19952;-56
2023/01/31 08:13:05;;;;;;;;;;;;;;;8.35;70.39;101721.81;7357541;19;19939;-56
2023/01/31 08:15:31;;;;;;;;;;;;;;;8.34;70.08;101727.91;7360864;19;19930;-56
2023/01/31 08:17:56;;;;;;;;;;;;;;;8.33;70.54;101731.38;7363123;19;19922;-55
2023/01/31 08:20:21;;;;;;;;;;;;;;;8.31;70.35;101733.09;7359674;19;19929;-55
2023/01/31 08:22:46;;;;;;;;;;;;;;;8.31;70.45;101738.28;7357797;19;20375;-55
2023/01/31 08:25:11;;;;;;;;;;;;;;;8.29;70.30;101740.91;7358529;19;19923;-55
2023/01/31 08:27:37;;;;;;;;;;;;;;;8.28;70.33;101746.09;7361695;19;19915;-55
2023/01/31 08:30:02;;;;;;;;;;;;;;;8.29;70.66;101740.03;7359675;19;19919;-56
2023/01/31 08:32:28;;;;;;;;;;;;;;;8.26;70.67;101730.50;7360900;19;19915;-55
2023/01/31 08:34:56;;;;;;;;;;;;;;;8.27;70.70;101726.16;7360132;19;19957;-56
2023/01/31 08:37:21;;;;;;;;;;;;;;;8.26;70.50;101737.41;7358998;19;19919;-56
2023/01/31 08:39:47;;;;;;;;;;;;;;;8.25;70.71;101726.13;7360141;19;19930;-56
2023/01/31 08:42:12;;;;;;;;;;;;;;;8.26;70.58;101729.59;7367240;19;19922;-55
2023/01/31 08:44:38;;;;;;;;;;;;;;;8.26;70.66;101732.19;7364957;19;20355;-54
2023/01/31 08:47:03;;;;;;;;;;;;;;;8.26;70.60;101745.22;7365435;19;20716;-54
2023/01/31 08:49:28;;;;;;;;;;;;;;;8.25;70.77;101743.47;7367572;19;19941;-56
2023/01/31 08:51:53;;;;;;;;;;;;;;;8.25;70.92;101735.66;7355216;19;19922;-55
2023/01/31 08:54:19;;;;;;;;;;;;;;;8.27;70.53;101736.56;7355811;19;19915;-56
2023/01/31 08:56:44;;;;;;;;;;;;;;;8.26;70.39;101750.41;7356627;19;19926;-55
2023/01/31 08:59:10;;;;;;;;;;;;;;;8.28;70.85;101739.16;7366893;19;19922;-56
2023/01/31 09:01:35;;;;;;;;;;;;;;;8.29;71.02;101745.22;7362198;19;19914;-56
2023/01/31 09:04:00;;;;;;;;;;;;;;;8.31;70.51;101753.91;7367200;19;19934;-56
2023/01/31 09:06:26;;;;;;;;;;;;;;;8.32;71.00;101747.84;7352274;19;19927;-53
2023/01/31 09:08:51;;;;;;;;;;;;;;;8.34;70.68;101748.72;7353039;19;19950;-56
2023/01/31 09:11:17;;;;;;;;;;;;;;;8.37;70.65;101751.38;7349998;19;19998;-55
2023/01/31 09:13:43;;;;;;;;;;;;;;;8.42;70.64;101752.25;7355428;19;19919;-57
2023/01/31 09:16:10;;;;;;;;;;;;;;;8.44;70.73;101760.94;7358284;19;19915;-54
2023/01/31 09:18:37;;;;;;;;;;;;;;;8.47;70.95;101776.56;7358999;19;19935;-56
2023/01/31 09:21:04;;;;;;;;;;;;;;;8.52;71.06;101774.00;7360974;19;19927;-55
2023/01/31 09:23:29;;;;;;;;;;;;;;;8.56;70.95;101767.91;7361953;19;20590;-56
2023/01/31 09:25:54;;;;;;;;;;;;;;;8.64;70.99;101773.13;7345929;19;19915;-56
2023/01/31 09:28:20;;;;;;;;;;;;;;;8.71;71.35;101774.88;7365832;19;19923;-56
2023/01/31 09:30:45;;;;;;;;;;;;;;;8.81;71.40;101767.09;7362576;19;19926;-55
2023/01/31 09:33:11;;;;;;;;;;;;;;;8.92;71.32;101774.94;7367998;19;19927;-54
2023/01/31 09:35:36;;;;;;;;;;;;;;;9.00;70.95;101773.19;7363079;19;19918;-54
2023/01/31 09:38:01;;;;;;;;;;;;;;;9.10;71.31;101785.34;7363951;19;19922;-56
2023/01/31 09:40:30;;;;;;;;;;;;;;;9.23;71.19;101786.25;7365023;19;19915;-56
2023/01/31 09:42:57;;;;;;;;;;;;;;;9.35;70.89;101780.16;7367213;19;19925;-56
2023/01/31 09:45:28;;;;;;;;;;;;;;;9.39;70.88;101779.28;7362750;19;19938;-55
2023/01/31 09:47:55;;;;;;;;;;;;;;;9.57;70.49;101787.09;7361848;19;19946;-56
2023/01/31 09:50:25;;;;;;;;;;;;;;;9.71;70.07;101791.41;7357874;19;19935;-55
2023/01/31 09:52:50;;;;;;;;;;;;;;;9.84;69.55;101790.53;7366329;19;19942;-57
2023/01/31 09:55:16;;;;;;;;;;;;;;;9.93;69.75;101789.63;7364081;19;19923;-56
2023/01/31 18:08:00;;;;;;;0.00;0.00;;;;;;;8.60;62.59;101828.66;7338131;19;20581;-57
2023/01/31 18:10:25;;;;;;;0.00;0.00;;;;;;;8.89;62.29;101815.75;7382645;19;20022;-56
2023/01/31 18:12:51;;;;;;;0.00;0.00;;;;;;;9.20;60.87;101822.72;7373438;19;20013;-56
2023/01/31 18:15:16;;;;;;;0.00;0.00;;;;;;;9.42;60.10;101814.91;7384571;19;20010;-56
2023/01/31 18:18:22;;;;;;;0.00;0.00;;;;;;;9.51;59.18;101801.88;7332205;19;20573;-58
2023/01/31 18:20:47;;;;;;;0.00;0.00;;;;;;;9.42;58.92;101770.59;7379044;19;20014;-57
2023/01/31 18:23:13;;;;;;;0.00;0.00;;;;;;;9.68;58.81;101820.09;7370263;19;20932;-56
2023/01/31 18:25:39;;;;;;;0.00;0.00;;;;;;;9.62;58.39;101794.91;7381856;19;20002;-58
2023/01/31 18:28:04;;;;;;;0.00;0.00;;;;;;;9.60;58.69;101781.00;7384544;19;20006;-56
2023/01/31 18:30:30;;;;;;;0.00;0.00;;;;;;;9.61;58.44;101793.16;7387032;19;20626;-59
2023/01/31 18:32:56;;;;;;;0.00;0.00;;;;;;;9.71;58.17;101799.25;7384892;19;20023;-58
2023/01/31 18:35:22;;;;;;;0.00;0.00;;;;;;;9.67;58.31;101797.50;7373213;19;20030;-59
2023/01/31 18:37:48;;;;;;;0.10;0.10;;;;;;;9.56;58.13;101784.47;7378602;19;20367;-58
2023/01/31 18:40:14;;;;;;;0.00;0.00;;;;;;;9.58;58.34;101799.28;7386349;19;20805;-57
2023/01/31 18:42:39;;;;;;;0.00;0.00;;;;;;;9.44;58.52;101780.16;7389091;19;20468;-58
2023/01/31 18:45:05;;;;;;;0.00;0.00;;;;;;;9.32;58.25;101774.94;7388160;19;20010;-58
2023/01/31 18:47:30;;;;;;;0.10;0.10;;;;;;;9.45;58.42;101813.19;7387235;19;20017;-56
2023/01/31 18:49:56;;;;;;;0.00;0.00;;;;;;;9.32;58.48;101785.34;7383874;19;20683;-57
2023/01/31 18:52:21;;;;;;;0.00;0.00;;;;;;;9.44;58.67;101811.44;7386481;19;20094;-58
2023/01/31 18:54:48;;;;;;;0.10;0.10;;;;;;;9.23;58.83;101774.97;7386835;19;20010;-56
2023/01/31 18:57:14;;;;;;;0.00;0.00;;;;;;;9.38;59.04;101811.44;7387468;19;20637;-56
2023/01/31 18:59:39;;;;;;;0.00;0.00;;;;;;;9.33;58.84;101802.75;7385252;19;20002;-57
2023/01/31 19:02:05;;;;;;;0.00;0.00;;;;;;;9.20;59.20;101790.59;7387379;19;20010;-57
2023/01/31 19:04:30;;;;;;;0.10;0.10;;;;;;;9.14;59.10;101790.59;7383543;19;20036;-57
2023/01/31 19:06:56;;;;;;;0.00;0.00;;;;;;;9.25;59.45;101812.31;7386990;19;20018;-56
2023/01/31 19:09:21;;;;;;;0.00;0.00;;;;;;;9.16;59.45;101809.69;7387801;19;20140;-58
2023/01/31 19:11:47;;;;;;;0.00;0.00;;;;;;;9.17;59.96;101809.69;7387723;19;20014;-58
2023/01/31 19:14:13;;;;;;;0.00;0.00;;;;;;;9.03;59.65;101783.63;7385442;19;20014;-58
2023/01/31 19:16:40;;;;;;;0.00;0.00;;;;;;;9.13;59.98;101818.38;7387997;19;20010;-59
2023/01/31 19:19:07;;;;;;;0.00;0.00;;;;;;;9.05;60.11;101805.34;7388200;19;20073;-60
2023/01/31 19:21:34;;;;;;;0.00;0.00;;;;;;;8.95;60.10;101794.91;7374122;19;20006;-60
2023/01/31 19:24:02;;;;;;;0.00;0.00;;;;;;;8.97;60.28;101807.06;7382355;19;20137;-58
2023/01/31 19:26:28;;;;;;;0.00;0.00;;;;;;;9.04;60.33;101832.25;7379384;19;20026;-59
2023/01/31 19:28:54;;;;;;;0.10;0.10;;;;;;;9.01;60.35;101820.94;7368107;19;20593;-60
2023/01/31 19:31:22;;;;;;;0.00;0.00;;;;;;;8.96;60.51;101807.06;7359266;19;20022;-59
2023/01/31 19:33:50;;;;;;;0.00;0.00;;;;;;;8.95;60.78;101816.59;7357970;19;20025;-58
2023/01/31 19:36:18;;;;;;;0.00;0.00;;;;;;;8.93;61.06;101807.94;7361143;19;20027;-58
2023/01/31 19:38:43;;;;;;;0.00;0.00;;;;;;;8.76;60.79;101805.28;7355367;19;20367;-57
2023/01/31 19:41:11;;;;;;;0.10;0.10;;;;;;;8.88;61.16;101830.50;7349044;19;20035;-58
2023/01/31 19:43:37;;;;;;;;;;;;;;;8.86;61.28;101832.22;7349305;19;20014;-58
2023/01/31 19:46:03;;;;;;;0.00;0.00;;;;;;;8.72;61.63;101813.97;7350860;19;19925;-55
2023/01/31 19:48:28;;;;;;;0.10;0.10;;;;;;;8.78;61.41;101818.31;7344842;19;20114;-58
2023/01/31 19:50:55;;;;;;;0.00;0.00;;;;;;;8.66;61.78;101798.31;7343466;19;20019;-58
2023/01/31 19:53:20;;;;;;;0.00;0.00;;;;;;;8.77;62.53;101829.59;7348113;19;20021;-56
2023/01/31 19:55:55;;;;;;;0.10;0.10;;;;;;;8.76;62.40;101810.47;7350869;19;20003;-57
2023/01/31 19:58:21;;;;;;;0.00;0.00;;;;;;;8.80;62.22;101812.22;7361357;19;20046;-57
2023/01/31 20:00:50;;;;;;;0.00;0.00;;;;;;;8.80;62.60;101806.16;7357416;19;20691;-56
2023/01/31 20:03:15;;;;;;;0.03;0.03;;;;;;;8.81;62.35;101810.50;7357001;19;20028;-57
2023/01/31 20:05:41;;;;;;;0.10;0.10;;;;;;;8.69;62.63;101805.28;7354329;19;20646;-56
2023/01/31 20:08:06;;;;;;;0.10;0.10;;;;;;;8.82;62.61;101830.50;7360523;19;20013;-58
2023/01/31 20:10:34;;;;;;;0.00;0.00;;;;;;;8.77;62.67;101832.22;7357025;19;20010;-58
2023/01/31 20:13:01;;;;;;;0.00;0.00;;;;;;;8.67;63.05;101825.19;7351666;19;20022;-58
2023/01/31 20:15:28;;;;;;;0.00;0.00;;;;;;;8.45;63.07;101780.88;7350019;19;20018;-58
2023/01/31 20:17:53;;;;;;;0.00;0.00;;;;;;;8.80;62.63;101838.28;7352441;19;20800;-57
2023/01/31 20:20:19;;;;;;;0.00;0.00;;;;;;;8.77;62.58;101812.25;7342660;19;20029;-57
2023/01/31 20:22:44;;;;;;;0.00;0.00;;;;;;;8.71;62.78;101806.13;7361059;19;20488;-57
2023/01/31 20:25:10;;;;;;;0.00;0.00;;;;;;;8.81;63.06;101818.31;7357239;19;20014;-57
2023/01/31 20:27:35;;;;;;;0.10;0.10;;;;;;;8.47;62.91;101767.91;7361277;19;20030;-55
2023/01/31 20:30:01;;;;;;;0.10;0.10;;;;;;;8.77;62.75;101817.44;7361721;19;20011;-58
2023/01/31 20:32:26;;;;;;;0.08;0.08;;;;;;;8.78;63.00;101823.53;7358526;19;20037;-56
2023/01/31 20:34:52;;;;;;;0.00;0.00;;;;;;;8.74;62.38;101822.63;7356563;19;20018;-58
2023/01/31 20:37:17;;;;;;;0.00;0.00;;;;;;;8.73;63.03;101831.31;7362340;19;20010;-57
2023/01/31 20:39:42;;;;;;;0.00;0.00;;;;;;;8.67;62.88;101815.69;7358357;19;20094;-56
2023/01/31 20:42:09;;;;;;;0.00;0.00;;;;;;;8.73;63.13;101820.03;7358529;19;20014;-57
2023/01/31 20:44:36;;;;;;;0.00;0.00;;;;;;;8.74;63.43;101811.34;7359551;19;20065;-58